Virginia Beach, VA (23450)

10:56 PM EST on February 13, 2016 (GMT -0500)
Kings Point | | Change Station
CLOSE
Current Station
Personal Weather Station
Location: Virginia Beach, VA
Elevation: 26 ft
Nearby Weather Stations

Elev 26 ft 36.85 °N, 76.09 °W | Updated 21 seconds ago

Clear
Clear
21.4 °F
Feels Like 12 °F
N
7.8
Wind Variable Wind from NNE

Today
High -- | Low -- °F
--% Chance of Precip.
Yesterday
High -- | Low -- °F
Precip. -- in
Pressure 30.41 in
Visibility 10.0 miles
Clouds Clear
Windchill 12 °F
Dew Point 3 °F
Humidity 45%
Rainfall 0.00 in
Snow Depth Not available.
6:55 AM 5:42 PM
Waxing Crescent, 37% visible
METAR KNTU 140256Z 33016KT 10SM CLR M03/M17 A3041 RMK AO2 SLP298 T10331172 51027
Pressure 30.41 in
Visibility 10.0 miles
Clouds Clear
Windchill 12 °F
Dew Point 3 °F
Humidity 45%
Rainfall 0.00 in
Snow Depth Not available.
6:55 AM 5:42 PM
Waxing Crescent, 37% visible
METAR KNTU 140256Z 33016KT 10SM CLR M03/M17 A3041 RMK AO2 SLP298 T10331172 51027

10-Day Weather Forecast

Almanac

Astronomy

Feb. 13, 2016 Rise Set
Actual Time
Civil Twilight
Nautical Twilight
Astronomical Twilight
Moon
Length of Visible Light
Length of Day
Tomorrow will be .
, % of the Moon is Illuminated

Today's Extremes

State Highs State Lows

Community

WunderPhotos

Upload Photos

1,892,738 photos uploaded!

WunderBlog® & News

Nearby

Air Quality

  Air Quality AQ Index Pollutant
Not available.

Snow Depth

Station Depth Elevation

Earthquake Activity

City Distance Mag. Time & Date
Minimum magnitude displayed is 2.5.

Coastal Water Temperatures

Place Temperature

Stations

Nearby Weather Stations

Station Location Temp. Windchill Dew Point Humidity Wind Precip. Elev Updated Type
                   

Watches & Warnings

There are currently no watches in effect.